createdAt,value
2022-09-14T00:01:28.698Z,94018.47
2022-09-14T00:04:00.820Z,94028.38
2022-09-14T00:06:29.246Z,94041.13
2022-09-14T00:08:58.245Z,94049.31
2022-09-14T00:11:27.323Z,94055.09
2022-09-14T00:13:54.930Z,94052.78
2022-09-14T00:16:24.515Z,94044.78
2022-09-14T00:19:06.164Z,94044.78
2022-09-14T00:21:38.371Z,94041.19
2022-09-14T00:24:07.271Z,94049.25
2022-09-14T00:26:34.475Z,94045.13
2022-09-14T00:29:04.801Z,94047.44
2022-09-14T00:31:37.305Z,94039.09
2022-09-14T00:34:06.241Z,94007.31
2022-09-14T00:36:37.560Z,94046.19
2022-09-14T00:39:04.663Z,94043.44
2022-09-14T00:41:34.753Z,94032.72
2022-09-14T00:44:04.554Z,94007.03
2022-09-14T00:46:41.473Z,94014.63
2022-09-14T00:49:26.653Z,94030.59
2022-09-14T00:51:58.883Z,94013.00
2022-09-14T00:54:26.499Z,93967.63
2022-09-14T00:56:54.463Z,93990.53
2022-09-14T00:59:25.744Z,94002.94
2022-09-14T01:01:52.501Z,93998.34
2022-09-14T01:04:19.326Z,93986.38
2022-09-14T01:07:07.381Z,93999.56
2022-09-14T01:09:37.010Z,93989.78
2022-09-14T01:12:14.504Z,93983.28
2022-09-14T01:15:03.738Z,93994.50
2022-09-14T01:17:57.248Z,93991.56
2022-09-14T01:20:38.801Z,93978.38
2022-09-14T01:23:29.963Z,93976.78
2022-09-14T01:26:24.526Z,93971.25
2022-09-14T01:29:32.108Z,93960.03
2022-09-14T01:32:04.176Z,93973.66
2022-09-14T01:34:59.118Z,93969.75
2022-09-14T01:37:43.406Z,93965.56
2022-09-14T01:40:29.327Z,93945.78
2022-09-14T01:43:10.838Z,93932.34
2022-09-14T01:45:42.291Z,93943.31
2022-09-14T01:48:12.719Z,93942.31
2022-09-14T01:50:48.668Z,93946.13
2022-09-14T01:53:34.786Z,93933.31
2022-09-14T01:56:23.490Z,93939.41
2022-09-14T01:58:56.727Z,93947.94
2022-09-14T02:01:48.509Z,93943.00
2022-09-14T02:04:23.751Z,93940.91
2022-09-14T02:06:50.960Z,93927.06
2022-09-14T02:09:22.849Z,93958.06
2022-09-14T02:11:49.755Z,93945.59
2022-09-14T02:14:16.673Z,93959.94
2022-09-14T02:16:46.257Z,93941.59
2022-09-14T02:19:14.146Z,93907.44
2022-09-14T02:21:41.029Z,93941.69
2022-09-14T02:24:08.531Z,93901.88
2022-09-14T02:26:35.738Z,93938.84
2022-09-14T02:29:03.778Z,93934.66
2022-09-14T02:31:40.606Z,93925.97
2022-09-14T02:34:22.526Z,93925.09
2022-09-14T02:37:15.627Z,93907.38
2022-09-14T02:39:45.477Z,93916.22
2022-09-14T02:42:25.878Z,93932.75
2022-09-14T02:44:55.514Z,93928.72
2022-09-14T02:47:38.113Z,93919.81
2022-09-14T02:50:20.604Z,93929.72
2022-09-14T02:53:21.510Z,93902.22
2022-09-14T02:55:54.106Z,93886.88
2022-09-14T02:58:21.758Z,93911.97
2022-09-14T03:00:50.785Z,93913.91
2022-09-14T03:03:20.376Z,93908.28
2022-09-14T03:05:47.772Z,93902.97
2022-09-14T03:08:14.925Z,93890.91
2022-09-14T03:10:43.943Z,93875.13
2022-09-14T03:13:11.741Z,93865.41
2022-09-14T03:15:38.543Z,93857.06
2022-09-14T03:18:09.986Z,93863.97
2022-09-14T03:20:39.582Z,93874.06
2022-09-14T03:23:09.100Z,93894.06
2022-09-14T03:25:41.370Z,93883.50
2022-09-14T03:28:10.039Z,93893.00
2022-09-14T03:30:37.417Z,93880.00
2022-09-14T03:33:04.447Z,93882.97
2022-09-14T03:35:31.562Z,93882.66
2022-09-14T03:37:59.793Z,93874.28
2022-09-14T03:40:27.440Z,93858.41
2022-09-14T03:42:54.654Z,93842.38
2022-09-14T03:45:21.930Z,93872.34
2022-09-14T03:47:49.907Z,93871.50
2022-09-14T03:50:18.111Z,93875.13
2022-09-14T03:52:45.145Z,93871.28
2022-09-14T03:55:11.891Z,93888.50
2022-09-14T03:57:38.886Z,93875.47
2022-09-14T04:00:07.186Z,93891.44
2022-09-14T04:02:38.350Z,93867.72
2022-09-14T04:05:05.740Z,93889.78
2022-09-14T04:07:33.136Z,93888.25
2022-09-14T04:09:59.834Z,93869.63
2022-09-14T04:12:26.734Z,93896.06
2022-09-14T04:14:53.563Z,93880.28
2022-09-14T04:17:20.406Z,93892.44
2022-09-14T04:19:47.239Z,93883.06
2022-09-14T04:22:13.947Z,93881.47
2022-09-14T04:24:40.689Z,93879.31
2022-09-14T04:27:07.494Z,93888.84
2022-09-14T04:29:34.403Z,93892.94
2022-09-14T04:32:01.286Z,93889.47
2022-09-14T04:34:28.233Z,93892.31
2022-09-14T04:36:55.359Z,93875.44
2022-09-14T04:39:22.654Z,93899.47
2022-09-14T04:41:49.525Z,93897.22
2022-09-14T04:44:16.534Z,93896.31
2022-09-14T04:46:46.537Z,93903.28
2022-09-14T04:49:18.952Z,93900.50
2022-09-14T04:51:45.777Z,93901.66
2022-09-14T04:54:16.024Z,93880.28
2022-09-14T04:56:43.183Z,93889.53
2022-09-14T04:59:10.961Z,93887.28
2022-09-14T05:01:40.370Z,93897.06
2022-09-14T05:04:08.679Z,93901.25
2022-09-14T05:06:37.927Z,93920.56
2022-09-14T05:09:07.627Z,93904.50
2022-09-14T05:11:36.278Z,93887.69
2022-09-14T05:14:04.036Z,93916.16
2022-09-14T05:16:33.718Z,93900.63
2022-09-14T05:19:04.938Z,93904.31
2022-09-14T05:21:35.887Z,93899.44
2022-09-14T05:24:08.915Z,93855.28
2022-09-14T05:26:36.397Z,93888.84
2022-09-14T05:29:03.923Z,93894.56
2022-09-14T05:31:32.140Z,93896.25
2022-09-14T05:33:59.144Z,93897.16
2022-09-14T05:36:26.551Z,93877.41
2022-09-14T05:38:53.359Z,93859.50
2022-09-14T05:41:20.218Z,93877.19
2022-09-14T05:43:46.960Z,93878.34
2022-09-14T05:46:15.901Z,93847.72
2022-09-14T05:48:43.210Z,93888.34
2022-09-14T05:51:14.089Z,93886.78
2022-09-14T05:53:41.466Z,93860.31
2022-09-14T05:56:13.921Z,93875.94
2022-09-14T05:58:41.578Z,93890.22
2022-09-14T06:01:19.027Z,93862.59
2022-09-14T06:03:47.060Z,93874.66
2022-09-14T06:06:17.017Z,93862.72
2022-09-14T06:08:44.761Z,93875.81
2022-09-14T06:11:15.770Z,93856.91
2022-09-14T06:13:43.083Z,93855.50
2022-09-14T06:16:16.222Z,93864.63
2022-09-14T06:18:44.582Z,93876.53
2022-09-14T06:21:15.318Z,93860.75
2022-09-14T06:23:42.813Z,93857.53
2022-09-14T06:26:10.241Z,93860.03
2022-09-14T06:28:37.474Z,93898.09
2022-09-14T06:31:07.580Z,93892.44
2022-09-14T06:33:34.889Z,93873.75
2022-09-14T06:36:05.418Z,93870.88
2022-09-14T06:38:33.078Z,93878.94
2022-09-14T06:41:02.804Z,93908.59
2022-09-14T06:43:32.750Z,93905.66
2022-09-14T06:46:05.521Z,93924.47
2022-09-14T06:48:35.750Z,93914.28
2022-09-14T06:51:19.462Z,93930.81
2022-09-14T06:53:47.772Z,93951.50
2022-09-14T06:56:15.273Z,93936.31
2022-09-14T06:58:42.380Z,93955.31
2022-09-14T07:01:14.960Z,93937.53
2022-09-14T07:03:43.922Z,93939.13
2022-09-14T07:06:13.934Z,93899.84
2022-09-14T07:08:41.089Z,93901.38
2022-09-14T07:11:10.062Z,93906.13
2022-09-14T07:13:37.175Z,93895.44
2022-09-14T07:16:04.967Z,93903.75
2022-09-14T07:18:32.953Z,93880.91
2022-09-14T07:21:10.612Z,93884.09
2022-09-14T07:23:41.069Z,93881.47
2022-09-14T07:26:11.020Z,93875.19
2022-09-14T07:28:39.254Z,93885.72
2022-09-14T07:31:15.471Z,93884.66
2022-09-14T07:33:42.242Z,93896.50
2022-09-14T07:36:11.146Z,93863.88
2022-09-14T07:38:53.637Z,93849.59
2022-09-14T07:41:22.719Z,93844.09
2022-09-14T07:43:55.508Z,93855.63
2022-09-14T07:46:23.480Z,93880.97
2022-09-14T07:48:56.903Z,93890.81
2022-09-14T07:51:24.561Z,93863.94
2022-09-14T07:53:51.629Z,93892.88
2022-09-14T07:56:18.536Z,93899.09
2022-09-14T07:58:45.430Z,93842.41
2022-09-14T08:01:15.330Z,93890.34
2022-09-14T08:03:45.860Z,93890.84
2022-09-14T08:06:14.157Z,93894.59
2022-09-14T08:08:43.693Z,93901.75
2022-09-14T08:11:16.400Z,93897.47
2022-09-14T08:13:46.436Z,93910.38
2022-09-14T08:16:13.920Z,93909.41
2022-09-14T08:18:41.166Z,93900.00
2022-09-14T08:21:13.402Z,93894.72
2022-09-14T08:23:41.268Z,93945.69
2022-09-14T08:26:09.768Z,93956.28
2022-09-14T08:28:37.213Z,93911.50
2022-09-14T08:31:09.025Z,93905.91
2022-09-14T08:33:38.006Z,93912.78
2022-09-14T08:36:06.320Z,93903.84
2022-09-14T08:38:33.210Z,93913.56
2022-09-14T08:41:10.862Z,93935.59
2022-09-14T08:43:39.680Z,93892.50
2022-09-14T08:46:12.950Z,93899.28
2022-09-14T08:48:46.516Z,93928.78
2022-09-14T08:51:13.278Z,93893.25
2022-09-14T08:53:41.822Z,93922.03
2022-09-14T08:56:19.253Z,93948.09
2022-09-14T08:58:51.802Z,93936.53
2022-09-14T09:01:30.071Z,93916.09
2022-09-14T09:04:08.933Z,93943.25
2022-09-14T09:06:54.424Z,93898.16
2022-09-14T09:09:27.524Z,93909.97
2022-09-14T09:11:56.138Z,93959.00
2022-09-14T09:14:31.324Z,93941.44
2022-09-14T09:17:01.182Z,93927.69
2022-09-14T09:19:41.743Z,93954.13
2022-09-14T09:22:15.094Z,93897.88
2022-09-14T09:24:51.173Z,93934.81
2022-09-14T09:27:17.906Z,93945.34
2022-09-14T09:29:45.088Z,93898.91
2022-09-14T09:32:25.031Z,93933.53
2022-09-14T09:35:25.086Z,93911.75
2022-09-14T09:38:01.090Z,93947.88
2022-09-14T09:40:41.408Z,93944.22
2022-09-14T09:43:11.401Z,93924.75
2022-09-14T09:46:01.870Z,93932.88
2022-09-14T09:48:37.931Z,93917.53
2022-09-14T09:51:07.892Z,93908.66
2022-09-14T09:53:38.911Z,93914.59
2022-09-14T09:56:06.213Z,93910.94
2022-09-14T09:58:38.497Z,93897.13
2022-09-14T10:01:12.415Z,93888.97
2022-09-14T10:03:41.095Z,93907.75
2022-09-14T10:06:13.171Z,93936.44
2022-09-14T10:08:43.310Z,93920.09
2022-09-14T10:11:37.876Z,93883.25
2022-09-14T10:14:17.729Z,93875.88
2022-09-14T10:16:45.069Z,93877.28
2022-09-14T10:19:21.318Z,93875.13
2022-09-14T10:22:17.479Z,93879.47
2022-09-14T10:25:22.213Z,93858.72
2022-09-14T10:28:21.326Z,93887.47
2022-09-14T10:30:57.480Z,93836.50
2022-09-14T10:33:24.210Z,93858.50
2022-09-14T10:35:57.009Z,93853.41
2022-09-14T10:38:32.021Z,93854.25
2022-09-14T10:41:10.247Z,93872.63
2022-09-14T10:44:16.361Z,93833.03
2022-09-14T10:46:49.580Z,93847.97
2022-09-14T10:49:28.509Z,93860.28
2022-09-14T10:52:05.601Z,93834.22
2022-09-14T10:54:44.214Z,93824.00
2022-09-14T10:57:26.246Z,93811.09
2022-09-14T11:00:03.480Z,93831.03
2022-09-14T11:02:39.395Z,93818.59
2022-09-14T11:05:30.765Z,93799.25
2022-09-14T11:08:02.025Z,93815.66
2022-09-14T11:11:11.534Z,93835.38
2022-09-14T11:13:59.873Z,93825.41
2022-09-14T11:16:41.590Z,93810.69
2022-09-14T11:19:52.862Z,93817.72
2022-09-14T11:22:38.548Z,93834.88
2022-09-14T11:25:20.804Z,93843.44
2022-09-14T11:28:03.740Z,93811.56
2022-09-14T11:30:41.520Z,93799.44
2022-09-14T11:33:19.158Z,93786.28
2022-09-14T11:35:54.927Z,93777.81
2022-09-14T11:38:27.343Z,93777.41
2022-09-14T11:41:30.199Z,93793.94
2022-09-14T11:44:19.464Z,93814.00
2022-09-14T11:46:52.347Z,93760.25
2022-09-14T11:49:56.722Z,93809.38
2022-09-14T11:52:26.599Z,93771.22
2022-09-14T11:54:54.568Z,93780.22
2022-09-14T11:57:26.049Z,93775.38
2022-09-14T12:00:18.813Z,93786.53
2022-09-14T12:02:59.786Z,93777.69
2022-09-14T12:05:32.442Z,93773.91
2022-09-14T12:08:00.571Z,93768.38
2022-09-14T12:10:28.532Z,93749.91
2022-09-14T12:13:19.959Z,93752.94
2022-09-14T12:15:46.772Z,93758.13
2022-09-14T12:18:22.512Z,93767.50
2022-09-14T12:21:18.389Z,93777.25
2022-09-14T12:23:52.052Z,93790.97
2022-09-14T12:26:24.395Z,93765.25
2022-09-14T12:28:56.131Z,93771.56
2022-09-14T12:31:44.193Z,93762.91
2022-09-14T12:34:19.967Z,93749.06
2022-09-14T12:36:46.662Z,93742.75
2022-09-14T12:39:22.216Z,93774.69
2022-09-14T12:41:48.872Z,93770.44
2022-09-14T12:44:32.995Z,93788.34
2022-09-14T12:47:25.404Z,93753.53
2022-09-14T12:49:58.141Z,93754.25
2022-09-14T12:52:50.831Z,93751.31
2022-09-14T12:55:36.944Z,93776.19
2022-09-14T12:58:25.729Z,93772.31
2022-09-14T13:01:14.146Z,93782.94
2022-09-14T13:03:50.457Z,93773.78
2022-09-14T13:06:18.392Z,93777.84
2022-09-14T13:08:57.736Z,93757.22
2022-09-14T13:11:31.032Z,93772.78
2022-09-14T13:13:59.370Z,93759.84
2022-09-14T13:16:47.984Z,93780.81
2022-09-14T13:19:25.479Z,93770.41
2022-09-14T13:21:56.546Z,93792.91
2022-09-14T13:24:42.552Z,93770.72
2022-09-14T13:27:21.763Z,93774.53
2022-09-14T13:29:57.104Z,93774.34
2022-09-14T13:32:24.172Z,93784.28
2022-09-14T13:34:52.770Z,93761.16
2022-09-14T13:37:21.193Z,93780.44
2022-09-14T13:42:48.678Z,93788.38
2022-09-14T13:45:15.458Z,93774.91
2022-09-14T13:47:42.852Z,93779.53
2022-09-14T13:50:13.853Z,93759.75
2022-09-14T13:53:01.174Z,93781.75
2022-09-14T13:55:43.857Z,93759.53
2022-09-14T13:58:32.557Z,93762.59
2022-09-14T14:01:04.898Z,93763.25
2022-09-14T14:03:34.562Z,93758.34
2022-09-14T14:06:16.756Z,93768.69
2022-09-14T14:08:44.239Z,93750.56
2022-09-14T14:11:11.155Z,93756.69
2022-09-14T14:13:38.375Z,93786.31
2022-09-14T14:16:24.021Z,93757.34
2022-09-14T14:18:52.441Z,93742.63
2022-09-14T14:21:22.363Z,93779.34
2022-09-14T14:24:12.074Z,93759.94
2022-09-14T14:26:38.578Z,93762.03
2022-09-14T14:29:09.753Z,93760.63
2022-09-14T14:31:36.641Z,93749.22
2022-09-14T14:34:17.080Z,93770.09
2022-09-14T14:36:44.257Z,93745.00
2022-09-14T14:39:11.377Z,93736.09
2022-09-14T14:41:38.367Z,93765.13
2022-09-14T14:44:07.470Z,93771.28
2022-09-14T14:46:34.314Z,93748.44
2022-09-14T14:49:01.023Z,93726.41
2022-09-14T14:51:27.772Z,93741.72
2022-09-14T14:53:54.932Z,93759.75
2022-09-14T14:56:21.898Z,93741.19
2022-09-14T14:58:48.691Z,93730.13
2022-09-14T15:01:16.422Z,93745.44
2022-09-14T15:03:43.714Z,93742.50
2022-09-14T15:06:28.660Z,93769.97
2022-09-14T15:08:56.650Z,93756.44
2022-09-14T15:11:24.379Z,93763.59
2022-09-14T15:13:51.138Z,93764.28
2022-09-14T15:16:18.084Z,93787.72
2022-09-14T15:18:45.245Z,93761.50
2022-09-14T15:21:12.112Z,93750.22
2022-09-14T15:23:39.077Z,93750.78
2022-09-14T15:26:06.099Z,93758.69
2022-09-14T15:28:35.861Z,93769.50
2022-09-14T15:31:07.129Z,93753.56
2022-09-14T15:33:34.815Z,93774.53
2022-09-14T15:36:01.773Z,93779.03
2022-09-14T15:38:28.833Z,93780.38
2022-09-14T15:40:55.889Z,93791.59
2022-09-14T15:43:23.170Z,93786.78
2022-09-14T15:45:50.329Z,93782.78
2022-09-14T15:48:18.488Z,93793.22
2022-09-14T15:50:47.176Z,93815.72
2022-09-14T15:53:17.115Z,93816.53
2022-09-14T15:55:45.343Z,93864.59
2022-09-14T15:58:12.528Z,93827.66
2022-09-14T16:00:44.413Z,93823.22
2022-09-14T16:03:11.391Z,93856.56
2022-09-14T16:05:41.206Z,93870.56
2022-09-14T16:08:07.913Z,93879.38
2022-09-14T16:10:34.777Z,93853.13
2022-09-14T16:13:01.586Z,93867.25
2022-09-14T16:15:28.644Z,93847.00
2022-09-14T16:17:56.328Z,93858.50
2022-09-14T16:20:23.352Z,93833.31
2022-09-14T16:22:51.425Z,93840.06
2022-09-14T16:25:18.285Z,93841.78
2022-09-14T16:27:45.613Z,93841.59
2022-09-14T16:30:12.981Z,93852.97
2022-09-14T16:32:40.317Z,93825.56
2022-09-14T16:35:08.246Z,93825.59
2022-09-14T16:37:35.748Z,93839.50
2022-09-14T16:40:04.209Z,93829.06
2022-09-14T16:42:31.380Z,93825.34
2022-09-14T16:44:58.142Z,93827.75
2022-09-14T16:47:25.803Z,93797.06
2022-09-14T16:49:53.273Z,93813.00
2022-09-14T16:52:20.140Z,93816.56
2022-09-14T16:54:46.891Z,93832.53
2022-09-14T16:57:13.815Z,93822.13
2022-09-14T16:59:40.901Z,93823.47
2022-09-14T17:02:11.041Z,93814.41
2022-09-14T17:04:37.961Z,93795.91
2022-09-14T17:07:04.953Z,93811.97
2022-09-14T17:09:32.901Z,93825.84
2022-09-14T17:12:00.267Z,93825.06
2022-09-14T17:14:32.152Z,93842.78
2022-09-14T17:17:00.117Z,93823.50
2022-09-14T17:19:27.541Z,93815.00
2022-09-14T17:21:54.725Z,93839.88
2022-09-14T17:24:21.864Z,93844.59
2022-09-14T17:26:48.877Z,93850.88
2022-09-14T17:29:16.202Z,93826.31
2022-09-14T17:31:45.045Z,93791.41
2022-09-14T17:34:13.869Z,93807.91
2022-09-14T17:36:41.215Z,93842.81
2022-09-14T17:39:11.649Z,93850.78
2022-09-14T17:41:39.783Z,93841.97
2022-09-14T17:44:09.864Z,93857.25
2022-09-14T17:46:43.232Z,93828.50
2022-09-14T17:49:16.317Z,93825.03
2022-09-14T17:51:45.938Z,93827.28
2022-09-14T17:54:12.960Z,93827.25
2022-09-14T17:56:40.049Z,93850.19
2022-09-14T17:59:11.867Z,93842.25
2022-09-14T18:01:38.640Z,93808.66
2022-09-14T18:04:07.617Z,93812.91
2022-09-14T18:06:38.354Z,93815.56
2022-09-14T18:09:09.233Z,93839.63
2022-09-14T18:11:36.837Z,93839.06
2022-09-14T18:14:04.926Z,93847.03
2022-09-14T18:16:33.193Z,93813.78
2022-09-14T18:19:00.631Z,93831.94
2022-09-14T18:21:27.421Z,93861.88
2022-09-14T18:23:55.204Z,93810.91
2022-09-14T18:26:23.486Z,93845.03
2022-09-14T18:28:53.487Z,93854.75
2022-09-14T18:31:20.272Z,93859.13
2022-09-14T18:34:01.936Z,93845.13
2022-09-14T18:36:29.955Z,93832.44
2022-09-14T18:38:58.757Z,93854.34
2022-09-14T18:41:29.021Z,93853.41
2022-09-14T18:43:56.256Z,93846.72
2022-09-14T18:46:27.628Z,93832.91
2022-09-14T18:48:57.173Z,93828.19
2022-09-14T18:51:23.910Z,93841.97
2022-09-14T18:53:57.233Z,93833.59
2022-09-14T18:56:24.491Z,93831.03
2022-09-14T18:58:51.323Z,93791.84
2022-09-14T19:01:18.308Z,93805.19
2022-09-14T19:03:45.491Z,93766.75
2022-09-14T19:06:15.212Z,93776.50
2022-09-14T19:08:42.891Z,93784.06
2022-09-14T19:11:12.678Z,93804.69
2022-09-14T19:13:39.707Z,93781.91
2022-09-14T19:16:14.647Z,93779.88
2022-09-14T19:18:42.762Z,93774.84
2022-09-14T19:21:12.297Z,93797.47
2022-09-14T19:23:39.610Z,93776.47
2022-09-14T19:26:09.625Z,93775.56
2022-09-14T19:28:37.417Z,93754.38
2022-09-14T19:31:14.319Z,93748.47
2022-09-14T19:33:45.197Z,93734.91
2022-09-14T19:36:22.350Z,93774.75
2022-09-14T19:38:51.362Z,93770.97
2022-09-14T19:41:19.346Z,93754.47
2022-09-14T19:43:46.826Z,93761.03
2022-09-14T19:46:16.770Z,93763.56
2022-09-14T19:48:44.242Z,93794.22
2022-09-14T19:51:15.301Z,93795.44
2022-09-14T19:53:43.842Z,93804.47
2022-09-14T19:56:13.576Z,93792.88
2022-09-14T19:58:43.155Z,93775.94
2022-09-14T20:01:11.239Z,93754.75
2022-09-14T20:03:39.009Z,93768.38
2022-09-14T20:06:09.840Z,93782.56
2022-09-14T20:08:37.604Z,93805.91
2022-09-14T20:11:15.601Z,93804.38
2022-09-14T20:13:44.760Z,93805.97
2022-09-14T20:16:41.010Z,93780.28
2022-09-14T20:19:13.851Z,93816.72
2022-09-14T20:21:41.522Z,93800.59
2022-09-14T20:24:16.186Z,93784.06
2022-09-14T20:26:48.434Z,93805.75
2022-09-14T20:29:17.985Z,93802.22
2022-09-14T20:31:45.713Z,93801.53
2022-09-14T20:34:14.152Z,93783.31
2022-09-14T20:36:41.367Z,93829.34
2022-09-14T20:39:09.147Z,93813.31
2022-09-14T20:41:36.454Z,93832.78
2022-09-14T20:44:04.363Z,93828.94
2022-09-14T20:46:37.348Z,93857.13
2022-09-14T20:49:05.754Z,93856.84
2022-09-14T20:51:32.621Z,93843.63
2022-09-14T20:53:59.370Z,93836.38
2022-09-14T20:56:28.774Z,93852.72
2022-09-14T20:58:59.087Z,93796.00
2022-09-14T21:01:28.672Z,93841.06
2022-09-14T21:03:55.713Z,93783.22
2022-09-14T21:06:25.758Z,93826.81
2022-09-14T21:08:52.660Z,93841.84
2022-09-14T21:11:25.306Z,93827.06
2022-09-14T21:13:54.225Z,93834.44
2022-09-14T21:16:30.431Z,93811.56
2022-09-14T21:19:00.096Z,93836.41
2022-09-14T21:21:27.809Z,93840.09
2022-09-14T21:23:56.686Z,93840.59
2022-09-14T21:26:25.526Z,93834.28
2022-09-14T21:28:57.764Z,93815.00
2022-09-14T21:31:26.792Z,93828.81
2022-09-14T21:33:55.645Z,93833.91
2022-09-14T21:36:25.564Z,93829.97
2022-09-14T21:38:59.703Z,93817.75
2022-09-14T21:41:28.757Z,93812.03
2022-09-14T21:43:56.966Z,93808.81
2022-09-14T21:46:24.886Z,93804.47
2022-09-14T21:48:52.667Z,93810.50
2022-09-14T21:51:27.680Z,93824.59
2022-09-14T21:53:59.846Z,93871.56
2022-09-14T21:56:29.021Z,93838.69
2022-09-14T21:59:00.884Z,93883.28
2022-09-14T22:01:28.328Z,93900.66
2022-09-14T22:03:56.070Z,93910.41
2022-09-14T22:06:24.838Z,93897.00
2022-09-14T22:08:52.543Z,93909.69
2022-09-14T22:11:25.018Z,93907.28
2022-09-14T22:14:00.927Z,93879.31
2022-09-14T22:16:29.989Z,93883.78
2022-09-14T22:18:59.390Z,93896.59
2022-09-14T22:21:29.027Z,93886.50
2022-09-14T22:23:59.452Z,93872.34
2022-09-14T22:26:28.757Z,93896.63
2022-09-14T22:28:57.399Z,93894.72
2022-09-14T22:31:24.726Z,93890.25
2022-09-14T22:33:54.141Z,93902.97
2022-09-14T22:36:21.157Z,93872.25
2022-09-14T22:38:48.059Z,93906.31
2022-09-14T22:41:20.750Z,93898.06
2022-09-14T22:43:47.525Z,93886.94
2022-09-14T22:46:16.588Z,93867.09
2022-09-14T22:48:44.196Z,93881.91
2022-09-14T22:51:15.013Z,93877.50
2022-09-14T22:53:42.579Z,93906.41
2022-09-14T22:56:31.362Z,93877.91
2022-09-14T22:59:00.245Z,93891.53
2022-09-14T23:01:30.278Z,93883.94
2022-09-14T23:03:59.890Z,93874.06
2022-09-14T23:06:32.778Z,93863.31
2022-09-14T23:09:00.516Z,93902.31
2022-09-14T23:11:28.447Z,93848.25
2022-09-14T23:13:55.638Z,93899.84
2022-09-14T23:16:26.093Z,93904.97
2022-09-14T23:19:01.563Z,93898.91
2022-09-14T23:21:30.398Z,93866.66
2022-09-14T23:24:03.208Z,93921.81
2022-09-14T23:26:30.819Z,93909.03
2022-09-14T23:29:00.637Z,93893.88
2022-09-14T23:31:29.541Z,93900.63
2022-09-14T23:33:57.906Z,93895.50
2022-09-14T23:36:25.218Z,93886.47
2022-09-14T23:38:52.855Z,93866.94
2022-09-14T23:41:21.842Z,93862.13
2022-09-14T23:43:49.126Z,93907.19
2022-09-14T23:46:16.416Z,93903.75
2022-09-14T23:48:44.050Z,93904.63
2022-09-14T23:51:12.304Z,93902.69
2022-09-14T23:53:40.530Z,93885.13
2022-09-14T23:56:07.870Z,93874.97
2022-09-14T23:58:35.133Z,93909.38
